Time;durP1;ratioP1;P1;durP2;ratioP2;P2;SDS_P1;SDS_P2;PMS_P1;PMS_P2;Temp;Humidity;BMP_temperature;BMP_pressure;BME280_temperature;BME280_humidity;BME280_pressure;Samples;Min_cycle;Max_cycle;Signal;HPM_P1;HPM_P2
2021/07/28 00:01:18;;;;;;;4.30;2.03;;;16.60;99.90;;;;;;4864886;29;20041;-83
2021/07/28 00:03:44;;;;;;;3.53;2.33;;;16.60;99.90;;;;;;4873538;29;20038;-83
2021/07/28 00:06:17;;;;;;;4.85;2.60;;;16.60;99.90;;;;;;4868873;29;20426;-82
2021/07/28 00:08:43;;;;;;;3.97;2.40;;;16.50;99.90;;;;;;4873954;29;20097;-82
2021/07/28 00:11:12;;;;;;;4.25;2.63;;;16.50;99.90;;;;;;4868603;29;20036;-83
2021/07/28 00:13:38;;;;;;;3.10;1.98;;;16.50;99.90;;;;;;4858275;29;20068;-83
2021/07/28 00:16:09;;;;;;;3.40;2.55;;;16.50;99.90;;;;;;4859585;29;20148;-83
2021/07/28 00:24:03;;;;;;;5.72;3.05;;;16.50;99.90;;;;;;4839946;29;20037;-83
2021/07/28 00:26:30;;;;;;;5.00;3.20;;;16.50;99.90;;;;;;4854743;29;20048;-83
2021/07/28 00:28:56;;;;;;;5.55;3.10;;;16.50;99.90;;;;;;4893226;29;20033;-83
2021/07/28 00:31:21;;;;;;;4.47;2.60;;;16.60;99.90;;;;;;4893243;29;20064;-83
2021/07/28 00:33:47;;;;;;;3.63;2.47;;;16.60;99.90;;;;;;4893368;29;20104;-83
2021/07/28 00:36:12;;;;;;;6.03;3.20;;;16.60;99.90;;;;;;4877480;29;20246;-83
2021/07/28 00:38:38;;;;;;;4.35;2.72;;;16.60;99.90;;;;;;4893279;29;20474;-83
2021/07/28 00:41:04;;;;;;;3.35;2.30;;;16.60;99.90;;;;;;4892976;29;20033;-83
2021/07/28 00:43:30;;;;;;;4.50;2.50;;;16.60;99.90;;;;;;4892976;29;20025;-83
2021/07/28 00:45:56;;;;;;;6.28;2.97;;;16.60;99.90;;;;;;4892574;29;20071;-82
2021/07/28 00:48:21;;;;;;;5.82;3.08;;;16.60;99.90;;;;;;4903152;29;20067;-83
2021/07/28 00:50:47;;;;;;;5.53;2.92;;;16.50;99.90;;;;;;4899093;29;20172;-84
2021/07/28 00:53:19;;;;;;;3.67;2.88;;;16.50;99.90;;;;;;4930499;29;20047;-83
2021/07/28 00:55:50;;;;;;;6.07;3.53;;;16.50;99.90;;;;;;4899022;29;20051;-83
2021/07/28 00:58:17;;;;;;;4.40;3.08;;;16.50;99.90;;;;;;4915161;29;20048;-84
2021/07/28 01:00:43;;;;;;;3.88;2.63;;;16.40;99.90;;;;;;4900443;29;20429;-84
2021/07/28 01:03:10;;;;;;;5.90;2.80;;;16.40;99.90;;;;;;4900630;29;20104;-84
2021/07/28 01:05:36;;;;;;;4.93;3.63;;;16.40;99.90;;;;;;4899087;29;20043;-84
2021/07/28 01:08:02;;;;;;;4.60;3.55;;;16.40;99.90;;;;;;4914480;29;20036;-83
2021/07/28 01:10:28;;;;;;;5.47;3.25;;;16.30;99.90;;;;;;4898551;29;20059;-84
2021/07/28 01:12:55;;;;;;;8.20;4.30;;;16.30;99.90;;;;;;4898674;29;20072;-83
2021/07/28 01:18:06;;;;;;;4.82;3.20;;;16.20;99.90;;;;;;4930016;29;20551;-83
2021/07/28 01:20:44;;;;;;;6.20;3.92;;;16.20;99.90;;;;;;4931249;29;20036;-83
2021/07/28 01:23:19;;;;;;;4.78;3.58;;;16.20;99.90;;;;;;4930338;29;20040;-84
2021/07/28 01:25:46;;;;;;;4.18;3.50;;;16.20;99.90;;;;;;4914203;29;20400;-83
2021/07/28 01:28:12;;;;;;;4.43;3.67;;;16.20;99.90;;;;;;4914133;29;20036;-84
2021/07/28 01:30:38;;;;;;;6.72;3.35;;;16.10;99.90;;;;;;4929996;29;20031;-83
2021/07/28 01:33:04;;;;;;;6.32;3.47;;;16.10;99.90;;;;;;4914010;29;20040;-84
2021/07/28 01:35:34;;;;;;;4.82;3.53;;;16.10;99.90;;;;;;4914110;29;20048;-85
2021/07/28 01:37:59;;;;;;;;;;;16.00;99.90;;;;;;4914588;29;20032;-84
2021/07/28 01:40:25;;;;;;;6.05;3.42;;;16.00;99.90;;;;;;4898319;29;19911;-82
2021/07/28 01:42:51;;;;;;;5.13;3.42;;;16.00;99.90;;;;;;4898366;29;20032;-84
2021/07/28 01:45:17;;;;;;;3.97;3.13;;;15.90;99.90;;;;;;4898096;29;20104;-84
2021/07/28 01:47:43;;;;;;;5.07;3.78;;;15.90;99.90;;;;;;4897884;29;20048;-84
2021/07/28 01:50:11;;;;;;;5.88;3.63;;;15.90;99.90;;;;;;4898445;29;20382;-84
2021/07/28 01:52:38;;;;;;;7.00;3.95;;;15.90;99.90;;;;;;4898316;29;20413;-85
2021/07/28 01:55:04;;;;;;;6.18;4.00;;;15.90;99.90;;;;;;4913900;29;20043;-84
2021/07/28 01:57:31;;;;;;;4.95;3.30;;;15.90;99.90;;;;;;4898560;29;20062;-84
2021/07/28 02:00:00;;;;;;;4.47;3.55;;;15.80;99.90;;;;;;4913808;29;20115;-84
2021/07/28 02:02:34;;;;;;;4.73;3.30;;;15.80;99.90;;;;;;4913643;29;20039;-84
2021/07/28 02:05:00;;;;;;;7.43;4.20;;;15.80;99.90;;;;;;4913839;29;20032;-83
2021/07/28 02:07:26;;;;;;;6.57;4.13;;;15.80;99.90;;;;;;4897961;29;20032;-84
2021/07/28 02:09:52;;;;;;;7.13;3.53;;;15.80;99.90;;;;;;4898034;29;20400;-83
2021/07/28 02:12:17;;;;;;;5.65;4.20;;;15.80;99.90;;;;;;4913609;29;20044;-84
2021/07/28 02:14:43;;;;;;;5.38;4.03;;;15.70;99.90;;;;;;4897669;29;20040;-84
2021/07/28 02:17:08;;;;;;;5.97;3.80;;;15.70;99.90;;;;;;4897567;29;20028;-83
2021/07/28 02:19:34;;;;;;;7.68;3.70;;;15.70;99.90;;;;;;4929145;29;20028;-83
2021/07/28 02:21:59;;;;;;;4.88;3.47;;;15.70;99.90;;;;;;4928337;29;20085;-83
2021/07/28 02:24:25;;;;;;;5.75;3.40;;;15.70;99.90;;;;;;4913493;29;20100;-83
2021/07/28 02:26:50;;;;;;;5.70;3.58;;;15.70;99.90;;;;;;4928914;29;20277;-84
2021/07/28 02:29:16;;;;;;;4.63;3.10;;;15.70;99.90;;;;;;4928843;29;20091;-83
2021/07/28 02:31:42;;;;;;;7.05;4.07;;;15.60;99.90;;;;;;4928942;29;20095;-84
2021/07/28 02:34:07;;;;;;;5.57;3.63;;;15.70;99.90;;;;;;4913161;29;20075;-85
2021/07/28 02:36:33;;;;;;;5.45;3.50;;;15.60;99.90;;;;;;4928835;29;20040;-84
2021/07/28 02:38:58;;;;;;;4.57;2.65;;;15.50;99.90;;;;;;4897446;29;20071;-84
2021/07/28 02:41:24;;;;;;;7.80;3.97;;;15.60;99.90;;;;;;4896640;29;20065;-84
2021/07/28 02:43:49;;;;;;;6.50;3.67;;;15.60;99.90;;;;;;4929988;29;20024;-84
2021/07/28 02:46:35;;;;;;;6.50;3.92;;;15.60;99.90;;;;;;4897197;29;20032;-86
2021/07/28 02:49:01;;;;;;;4.43;3.25;;;15.60;99.90;;;;;;4871092;29;20049;-84
2021/07/28 02:51:27;;;;;;;5.13;3.22;;;15.50;99.90;;;;;;4855709;29;20045;-84
2021/07/28 02:53:52;;;;;;;5.53;3.80;;;15.60;99.90;;;;;;4855626;29;20105;-83
2021/07/28 02:56:18;;;;;;;6.55;3.88;;;15.60;99.90;;;;;;4855707;29;20037;-84
2021/07/28 02:58:43;;;;;;;4.32;3.13;;;15.50;99.90;;;;;;4855816;29;20109;-84
2021/07/28 03:01:09;;;;;;;5.60;3.42;;;15.50;99.90;;;;;;4871348;29;20041;-84
2021/07/28 03:03:34;;;;;;;5.57;3.42;;;15.50;99.90;;;;;;4855497;29;20037;-85
2021/07/28 03:06:02;;;;;;;6.70;3.60;;;15.50;99.90;;;;;;4855498;29;20037;-84
2021/07/28 03:08:27;;;;;;;9.00;3.97;;;15.60;99.90;;;;;;4855397;29;20037;-85
2021/07/28 03:10:53;;;;;;;6.95;3.47;;;15.60;99.90;;;;;;4855738;29;20106;-84
2021/07/28 03:13:19;;;;;;;5.80;4.05;;;15.60;99.90;;;;;;4855428;29;20056;-84
2021/07/28 03:15:44;;;;;;;5.60;3.22;;;15.70;99.90;;;;;;4852272;29;20049;-84
2021/07/28 03:18:10;;;;;;;7.50;4.10;;;15.70;99.90;;;;;;4852333;29;20045;-84
2021/07/28 03:20:35;;;;;;;5.75;3.72;;;15.80;99.90;;;;;;4852411;29;20042;-84
2021/07/28 03:23:01;;;;;;;5.70;3.55;;;15.70;99.90;;;;;;4852299;29;20037;-84
2021/07/28 03:25:27;;;;;;;6.80;3.42;;;15.80;99.90;;;;;;4863166;29;20079;-84
2021/07/28 03:27:52;;;;;;;5.97;3.58;;;15.80;99.90;;;;;;4909074;29;20036;-84
2021/07/28 03:30:18;;;;;;;4.32;3.22;;;15.90;99.90;;;;;;4908926;29;20036;-85
2021/07/28 03:32:44;;;;;;;5.43;3.40;;;15.90;99.90;;;;;;4908989;29;20067;-85
2021/07/28 03:35:10;;;;;;;7.50;3.60;;;15.90;99.90;;;;;;4910232;29;20064;-84
2021/07/28 03:37:35;;;;;;;6.28;3.25;;;15.90;99.90;;;;;;4924646;29;20039;-85
2021/07/28 03:40:01;;;;;;;5.32;3.45;;;15.90;99.90;;;;;;4928069;29;20051;-84
2021/07/28 03:42:32;;;;;;;6.57;4.25;;;15.90;99.90;;;;;;4896747;29;20142;-84
2021/07/28 03:44:58;;;;;;;4.72;3.20;;;16.00;99.90;;;;;;4912010;29;20246;-86
2021/07/28 03:47:25;;;;;;;6.43;3.08;;;15.90;99.90;;;;;;4911629;29;20048;-84
2021/07/28 03:49:50;;;;;;;7.25;3.85;;;15.90;99.90;;;;;;4927998;29;20032;-84
2021/07/28 03:52:16;;;;;;;7.40;4.25;;;15.90;99.90;;;;;;4896604;29;20095;-84
2021/07/28 03:54:43;;;;;;;6.03;2.88;;;15.90;99.90;;;;;;4911928;29;20064;-84
2021/07/28 03:57:10;;;;;;;6.22;3.25;;;15.80;99.90;;;;;;4929035;29;20056;-84
2021/07/28 03:59:36;;;;;;;5.32;3.25;;;15.90;99.90;;;;;;4927826;29;20044;-85
2021/07/28 04:02:02;;;;;;;5.45;3.55;;;15.90;99.90;;;;;;4912044;29;20036;-84
2021/07/28 04:04:27;;;;;;;5.53;3.95;;;15.90;99.90;;;;;;4895972;29;20099;-84
2021/07/28 04:06:53;;;;;;;5.20;3.60;;;15.90;99.90;;;;;;4895720;29;20028;-85
2021/07/28 04:09:19;;;;;;;4.55;3.53;;;15.90;99.90;;;;;;4895678;29;20116;-86
2021/07/28 04:11:44;;;;;;;7.60;3.40;;;15.90;99.90;;;;;;4896025;29;20028;-85
2021/07/28 04:14:10;;;;;;;4.65;3.38;;;15.90;99.90;;;;;;4911398;29;20055;-84
2021/07/28 04:16:36;;;;;;;4.70;3.45;;;15.90;99.90;;;;;;4907849;29;20063;-85
2021/07/28 04:19:02;;;;;;;6.20;3.83;;;15.90;99.90;;;;;;4908211;29;20117;-85
2021/07/28 04:21:27;;;;;;;5.72;3.95;;;15.90;99.90;;;;;;4892754;29;20074;-86
2021/07/28 04:24:16;;;;;;;6.40;4.25;;;15.90;99.90;;;;;;4923788;29;20064;-86
2021/07/28 04:26:41;;;;;;;4.72;3.67;;;15.90;99.90;;;;;;4884688;29;20141;-85
2021/07/28 04:29:07;;;;;;;5.88;3.30;;;15.90;99.90;;;;;;4896406;29;20032;-85
2021/07/28 04:31:33;;;;;;;5.32;2.55;;;16.00;99.90;;;;;;4911378;29;20039;-85
2021/07/28 04:33:58;;;;;;;6.18;3.63;;;16.00;99.90;;;;;;4895592;29;20423;-85
2021/07/28 04:36:24;;;;;;;6.15;3.22;;;16.10;99.90;;;;;;4895544;29;20024;-85
2021/07/28 04:38:49;;;;;;;7.30;3.40;;;16.10;99.90;;;;;;4911068;29;20047;-85
2021/07/28 04:41:15;;;;;;;4.90;3.60;;;16.10;99.90;;;;;;4927227;29;20076;-85
2021/07/28 04:43:41;;;;;;;8.80;4.55;;;16.10;99.90;;;;;;4911172;29;20040;-85
2021/07/28 04:46:06;;;;;;;6.30;4.88;;;16.10;99.90;;;;;;4897756;29;20481;-86
2021/07/28 04:48:32;;;;;;;6.82;3.65;;;16.20;99.90;;;;;;4898468;29;20052;-85
2021/07/28 04:50:59;;;;;;;5.85;3.95;;;16.20;99.90;;;;;;4898724;29;20032;-84
2021/07/28 04:53:30;;;;;;;6.90;3.67;;;16.20;99.90;;;;;;4898504;29;20048;-84
2021/07/28 04:55:57;;;;;;;6.63;3.67;;;16.20;99.90;;;;;;4898845;29;20050;-84
2021/07/28 04:58:24;;;;;;;7.13;3.67;;;16.30;99.90;;;;;;4914014;29;20068;-88
2021/07/28 05:00:50;;;;;;;7.75;4.95;;;16.30;99.90;;;;;;4914585;29;20032;-85
2021/07/28 05:03:16;;;;;;;7.55;4.43;;;16.30;99.90;;;;;;4898506;29;20024;-86
2021/07/28 05:05:42;;;;;;;6.00;3.70;;;16.30;99.90;;;;;;4898340;29;20187;-85
2021/07/28 05:08:09;;;;;;;7.25;4.78;;;16.30;99.90;;;;;;4911868;29;20476;-89
2021/07/28 05:10:35;;;;;;;6.05;4.43;;;16.40;99.90;;;;;;4914043;29;20088;-84
2021/07/28 05:13:01;;;;;;;7.60;4.30;;;16.40;99.90;;;;;;4913442;29;20048;-89
2021/07/28 05:15:27;;;;;;;5.43;4.28;;;16.40;99.90;;;;;;4928872;29;20099;-85
2021/07/28 05:17:52;;;;;;;5.70;3.85;;;16.40;99.90;;;;;;4913499;29;20032;-87
2021/07/28 05:20:18;;;;;;;8.70;3.45;;;16.50;99.90;;;;;;4913819;29;20058;-85
2021/07/28 05:22:45;;;;;;;5.97;4.40;;;16.60;99.90;;;;;;4913624;29;20036;-84
2021/07/28 05:25:11;;;;;;;6.50;4.88;;;16.50;99.90;;;;;;4929694;29;20036;-84
2021/07/28 05:27:37;;;;;;;6.88;4.45;;;16.60;99.90;;;;;;4914672;29;20035;-88
2021/07/28 05:30:03;;;;;;;6.57;4.47;;;16.60;99.90;;;;;;4929913;29;20036;-87
2021/07/28 05:32:29;;;;;;;6.05;3.97;;;16.60;99.90;;;;;;4914370;29;20055;-85
2021/07/28 05:34:55;;;;;;;5.43;3.83;;;16.70;99.90;;;;;;4929687;29;20060;-85
2021/07/28 05:37:21;;;;;;;8.60;4.78;;;16.70;99.90;;;;;;4897519;29;20112;-91
2021/07/28 05:39:47;;;;;;;5.45;3.95;;;16.70;99.90;;;;;;4929313;29;20491;-84
2021/07/28 05:42:13;;;;;;;7.10;4.32;;;16.70;99.90;;;;;;4898830;29;20047;-89
2021/07/28 05:44:39;;;;;;;6.25;4.40;;;16.70;99.90;;;;;;4915242;29;20040;-85
2021/07/28 05:47:05;;;;;;;6.60;5.03;;;16.80;99.90;;;;;;4914504;29;20040;-89
2021/07/28 05:49:32;;;;;;;9.13;6.75;;;16.80;99.90;;;;;;4898469;29;20040;-84
2021/07/28 05:51:58;;;;;;;8.95;5.97;;;16.80;99.90;;;;;;4897405;29;20036;-85
2021/07/28 05:54:23;;;;;;;7.85;4.88;;;16.80;99.90;;;;;;4914193;29;20071;-85
2021/07/28 05:56:49;;;;;;;5.22;3.90;;;16.90;99.90;;;;;;4898956;29;20188;-85
2021/07/28 05:59:15;;;;;;;8.55;5.05;;;17.00;99.90;;;;;;4898347;29;20047;-85
2021/07/28 06:01:41;;;;;;;8.40;5.22;;;17.00;99.90;;;;;;4898282;29;20036;-85
2021/07/28 06:04:07;;;;;;;6.88;5.50;;;17.00;99.90;;;;;;4898140;29;20032;-83
2021/07/28 06:06:32;;;;;;;8.02;5.50;;;17.00;99.90;;;;;;4864645;29;20041;-85
2021/07/28 06:08:58;;;;;;;6.22;3.70;;;17.10;99.90;;;;;;4912614;29;20051;-83
2021/07/28 06:11:24;;;;;;;8.73;4.40;;;17.20;99.90;;;;;;4912791;29;20028;-83
2021/07/28 06:13:49;;;;;;;8.82;6.60;;;17.20;99.90;;;;;;4912586;29;20067;-82
2021/07/28 06:16:15;;;;;;;9.27;5.93;;;17.20;99.90;;;;;;4912303;29;20151;-82
2021/07/28 06:18:41;;;;;;;7.45;6.03;;;17.20;99.90;;;;;;4912577;29;20036;-83
2021/07/28 06:21:09;;;;;;;7.32;5.90;;;17.20;99.90;;;;;;4929574;29;20056;-83
2021/07/28 06:23:35;;;;;;;8.00;6.03;;;17.30;99.90;;;;;;4928596;29;20063;-82
2021/07/28 06:26:00;;;;;;;8.15;5.68;;;17.40;99.90;;;;;;4929198;29;20043;-83
2021/07/28 06:28:26;;;;;;;10.05;7.00;;;17.50;99.90;;;;;;4912295;29;20039;-82
2021/07/28 06:30:55;;;;;;;8.30;6.68;;;17.50;99.90;;;;;;4913152;29;20108;-83
2021/07/28 06:33:22;;;;;;;12.13;6.97;;;17.50;99.90;;;;;;4912678;29;20068;-84
2021/07/28 06:35:48;;;;;;;8.30;5.25;;;17.50;99.90;;;;;;4912123;29;20100;-82
2021/07/28 06:38:16;;;;;;;7.95;6.30;;;17.50;99.90;;;;;;4912417;29;20032;-85
2021/07/28 06:40:42;;;;;;;10.55;6.90;;;17.40;99.90;;;;;;4912458;29;20189;-85
2021/07/28 06:43:08;;;;;;;7.57;5.90;;;17.40;99.90;;;;;;4912685;29;20122;-81
2021/07/28 06:45:34;;;;;;;8.68;6.20;;;17.40;99.90;;;;;;4928019;29;20457;-82
2021/07/28 06:47:59;;;;;;;9.98;6.68;;;17.40;99.90;;;;;;4880717;29;20107;-83
2021/07/28 06:50:25;;;;;;;7.68;6.00;;;17.50;99.90;;;;;;4911908;29;20032;-82
2021/07/28 06:52:51;;;;;;;10.55;7.25;;;17.70;99.90;;;;;;4927805;29;20048;-81
2021/07/28 06:55:17;;;;;;;8.15;6.10;;;17.80;99.90;;;;;;4911948;29;20028;-82
2021/07/28 06:57:43;;;;;;;7.75;5.68;;;17.80;99.90;;;;;;4911915;29;20564;-83
2021/07/28 07:00:09;;;;;;;8.55;6.38;;;17.90;99.90;;;;;;4896459;29;20032;-82
2021/07/28 07:02:35;;;;;;;9.35;7.03;;;17.90;99.90;;;;;;4912157;29;20076;-84
2021/07/28 07:05:00;;;;;;;7.78;6.82;;;17.90;99.90;;;;;;4928919;29;20465;-84
2021/07/28 07:07:26;;;;;;;8.63;6.70;;;17.90;99.90;;;;;;4911519;29;20028;-83
2021/07/28 07:09:52;;;;;;;8.88;7.78;;;17.90;99.90;;;;;;4928884;29;20030;-83
2021/07/28 07:12:19;;;;;;;7.82;7.03;;;18.10;99.90;;;;;;4911655;29;20067;-85
2021/07/28 07:14:45;;;;;;;11.02;7.53;;;18.30;99.90;;;;;;4911890;29;20111;-87
2021/07/28 07:17:11;;;;;;;6.75;6.05;;;18.50;99.90;;;;;;4911389;29;20028;-83
2021/07/28 07:19:37;;;;;;;7.82;6.72;;;18.80;99.90;;;;;;4928854;29;20446;-84
2021/07/28 07:22:03;;;;;;;6.53;5.68;;;18.90;99.90;;;;;;4911786;29;20107;-84
2021/07/28 07:24:28;;;;;;;8.05;6.70;;;18.80;99.90;;;;;;4911619;29;20485;-84
2021/07/28 07:26:54;;;;;;;8.70;7.20;;;18.80;99.90;;;;;;4911652;29;20036;-83
2021/07/28 07:29:19;;;;;;;9.07;5.78;;;19.00;99.90;;;;;;4911797;29;20126;-84
2021/07/28 07:31:45;;;;;;;7.47;6.35;;;19.10;99.90;;;;;;4911542;29;20457;-84
2021/07/28 07:34:10;;;;;;;10.25;8.38;;;19.00;99.90;;;;;;4927335;29;20054;-82
2021/07/28 07:36:36;;;;;;;10.35;8.32;;;18.70;99.90;;;;;;4911294;29;20063;-84
2021/07/28 07:39:03;;;;;;;9.77;7.32;;;18.50;99.90;;;;;;4911678;29;20059;-82
2021/07/28 07:41:29;;;;;;;8.25;6.97;;;18.60;99.90;;;;;;4911615;29;20047;-84
2021/07/28 07:43:57;;;;;;;8.68;7.50;;;18.80;99.90;;;;;;4911521;29;20481;-85
2021/07/28 07:46:43;;;;;;;9.43;8.05;;;19.00;99.90;;;;;;4911181;29;20036;-81
2021/07/28 07:49:09;;;;;;;8.02;7.10;;;19.10;99.90;;;;;;4869231;29;20064;-84
2021/07/28 07:51:34;;;;;;;8.07;6.65;;;19.00;99.90;;;;;;4839360;29;20065;-84
2021/07/28 07:54:00;;;;;;;5.97;5.35;;;19.10;99.90;;;;;;4869869;29;20069;-85
2021/07/28 07:56:27;;;;;;;6.85;5.32;;;19.10;99.90;;;;;;4869770;29;20097;-83
2021/07/28 07:58:53;;;;;;;5.40;4.85;;;19.30;99.90;;;;;;4870016;29;20040;-84
2021/07/28 08:01:18;;;;;;;9.88;4.43;;;19.40;99.90;;;;;;4869949;29;20057;-84
2021/07/28 08:03:44;;;;;;;5.13;4.47;;;19.40;99.90;;;;;;4870032;29;20475;-84
2021/07/28 08:06:10;;;;;;;4.82;4.43;;;19.60;99.90;;;;;;4854158;29;20041;-84
2021/07/28 08:08:38;;;;;;;4.63;4.22;;;19.50;99.90;;;;;;4869817;29;20081;-85
2021/07/28 08:11:12;;;;;;;5.45;4.93;;;19.70;99.90;;;;;;4869933;29;20037;-84
2021/07/28 08:13:37;;;;;;;4.57;3.97;;;20.00;99.90;;;;;;4869791;29;20060;-85
2021/07/28 08:16:14;;;;;;;4.40;3.55;;;20.50;99.90;;;;;;4861670;29;20030;-84
2021/07/28 08:18:40;;;;;;;8.13;3.80;;;21.00;99.90;;;;;;4836156;29;20042;-83
2021/07/28 08:21:08;;;;;;;4.90;3.28;;;21.00;99.90;;;;;;4838431;29;20038;-83
2021/07/28 08:23:34;;;;;;;8.77;4.18;;;21.30;99.90;;;;;;4839307;29;20042;-84
2021/07/28 08:26:00;;;;;;;3.67;2.83;;;21.10;99.90;;;;;;4866034;29;20127;-84
2021/07/28 08:28:26;;;;;;;6.18;2.63;;;21.70;99.90;;;;;;4914969;29;20039;-85
2021/07/28 08:30:55;;;;;;;4.13;2.65;;;21.10;99.90;;;;;;4914866;29;20059;-85
2021/07/28 08:33:24;;;;;;;3.75;2.78;;;20.50;99.90;;;;;;4914495;29;20131;-84
2021/07/28 08:35:50;;;;;;;6.45;2.67;;;20.00;99.90;;;;;;4914639;29;20032;-85
2021/07/28 08:38:18;;;;;;;4.18;2.28;;;19.80;99.90;;;;;;4898798;29;20051;-85
2021/07/28 08:40:55;;;;;;;3.90;2.17;;;20.30;99.90;;;;;;4899176;29;20036;-85
2021/07/28 08:43:24;;;;;;;3.40;1.70;;;20.20;99.90;;;;;;4914517;29;20100;-84
2021/07/28 08:45:51;;;;;;;4.70;1.70;;;20.30;99.90;;;;;;4930017;29;20088;-83
2021/07/28 08:48:17;;;;;;;3.40;1.42;;;20.90;99.90;;;;;;4898278;29;20128;-85
2021/07/28 08:50:46;;;;;;;5.60;1.65;;;21.20;99.90;;;;;;4898666;29;20112;-85
2021/07/28 08:53:11;;;;;;;4.90;2.00;;;20.70;99.90;;;;;;4931046;29;20098;-84
2021/07/28 08:55:39;;;;;;;3.00;1.60;;;20.50;99.90;;;;;;4930066;29;20119;-84
2021/07/28 08:58:12;;;;;;;8.75;2.35;;;21.10;99.90;;;;;;4898569;29;20051;-86
2021/07/28 09:00:42;;;;;;;4.15;1.88;;;20.90;99.90;;;;;;4898654;29;20065;-83
2021/07/28 09:03:08;;;;;;;4.65;1.60;;;21.00;99.90;;;;;;4898341;29;20032;-83
2021/07/28 09:05:47;;;;;;;2.72;1.80;;;21.40;99.90;;;;;;4913944;29;20068;-83
2021/07/28 09:08:34;;;;;;;5.78;2.03;;;21.20;99.90;;;;;;4898217;29;20032;-83
2021/07/28 09:11:07;;;;;;;3.63;1.38;;;21.00;99.90;;;;;;4898415;29;20036;-83
2021/07/28 09:13:38;;;;;;;5.40;1.88;;;20.80;99.90;;;;;;4913941;29;20048;-84
2021/07/28 09:16:10;;;;;;;3.38;1.42;;;21.00;99.90;;;;;;4898192;29;20032;-85
2021/07/28 09:18:38;;;;;;;2.55;1.10;;;21.10;99.90;;;;;;4914085;29;20034;-85
2021/07/28 09:21:20;;;;;;;4.13;1.55;;;22.10;99.90;;;;;;4913925;29;20032;-85
2021/07/28 09:23:51;;;;;;;3.20;1.42;;;21.90;99.90;;;;;;4913629;29;20068;-83
2021/07/28 09:26:32;;;;;;;3.28;1.15;;;20.80;99.90;;;;;;4929634;29;20028;-87
2021/07/28 09:29:09;;;;;;;3.72;1.42;;;20.70;99.90;;;;;;4913736;29;20032;-84
2021/07/28 09:31:40;;;;;;;3.03;0.80;;;21.00;99.90;;;;;;4929348;29;20051;-85
2021/07/28 09:34:10;;;;;;;2.08;0.82;;;21.70;99.90;;;;;;4913527;29;20067;-85
2021/07/28 09:36:36;;;;;;;4.22;0.77;;;22.20;99.90;;;;;;4921609;29;20125;-84
2021/07/28 09:39:03;;;;;;;1.73;0.77;;;21.80;99.90;;;;;;4894503;29;20032;-83
2021/07/28 09:41:29;;;;;;;2.40;0.88;;;21.20;99.90;;;;;;4894823;29;20478;-85
2021/07/28 09:44:00;;;;;;;3.25;0.88;;;20.30;99.90;;;;;;4894591;29;20067;-85
2021/07/28 09:46:49;;;;;;;2.10;0.80;;;20.30;99.90;;;;;;4894259;29;20100;-83
2021/07/28 09:49:19;;;;;;;3.22;0.70;;;20.40;99.90;;;;;;4816497;29;20042;-87
2021/07/28 09:51:46;;;;;;;3.55;0.80;;;20.70;99.90;;;;;;4801859;29;20046;-83
2021/07/28 09:54:13;;;;;;;1.83;0.50;;;20.40;99.90;;;;;;4816243;29;20222;-83
2021/07/28 09:56:54;;;;;;;2.22;0.80;;;20.20;99.90;;;;;;4801509;29;20042;-85
2021/07/28 09:59:22;;;;;;;3.47;0.63;;;20.90;99.90;;;;;;4801380;29;20059;-83
2021/07/28 10:01:48;;;;;;;3.42;0.80;;;21.60;99.90;;;;;;4801651;29;20164;-84
2021/07/28 10:04:15;;;;;;;2.08;0.70;;;21.50;99.90;;;;;;4801784;29;20030;-83
2021/07/28 10:06:46;;;;;;;1.25;0.50;;;22.10;99.90;;;;;;4801527;29;20069;-84
2021/07/28 10:09:16;;;;;;;2.28;0.70;;;21.60;99.90;;;;;;4801227;29;20096;-83
2021/07/28 10:11:47;;;;;;;2.15;0.73;;;21.80;99.90;;;;;;4816482;29;20042;-84
2021/07/28 10:14:18;;;;;;;3.47;0.95;;;22.30;99.90;;;;;;4816949;29;20517;-85
2021/07/28 10:16:44;;;;;;;1.77;0.60;;;21.80;99.90;;;;;;4811021;29;20500;-84
2021/07/28 10:19:10;;;;;;;2.83;0.60;;;22.30;99.90;;;;;;4816121;29;20053;-84
2021/07/28 10:21:36;;;;;;;3.08;0.75;;;22.30;99.90;;;;;;4816550;29;20042;-85
2021/07/28 10:24:03;;;;;;;1.90;0.80;;;22.00;99.90;;;;;;4816092;29;20038;-86
2021/07/28 10:26:33;;;;;;;2.50;0.82;;;22.40;99.90;;;;;;4860141;29;20454;-86
2021/07/28 10:28:59;;;;;;;3.60;0.93;;;22.40;99.90;;;;;;4875294;29;20032;-89
2021/07/28 10:31:25;;;;;;;3.35;0.60;;;21.90;99.90;;;;;;4875323;29;20036;-86
2021/07/28 10:33:56;;;;;;;2.22;0.50;;;22.20;99.90;;;;;;4875594;29;20052;-84
2021/07/28 10:36:42;;;;;;;2.05;0.50;;;21.90;99.90;;;;;;4880954;29;20084;-86
2021/07/28 10:39:08;;;;;;;4.65;0.65;;;21.90;99.90;;;;;;4893319;29;20040;-85
2021/07/28 10:41:37;;;;;;;2.78;0.50;;;21.90;99.90;;;;;;4893676;29;20033;-87
2021/07/28 10:44:18;;;;;;;2.90;0.57;;;22.60;99.90;;;;;;4908596;29;20071;-87
2021/07/28 10:46:54;;;;;;;2.80;0.68;;;22.30;99.90;;;;;;4893497;29;20040;-83
2021/07/28 10:49:35;;;;;;;2.38;0.57;;;21.90;99.90;;;;;;4917091;29;20040;-85
2021/07/28 10:52:02;;;;;;;1.65;0.57;;;21.80;99.90;;;;;;4912289;29;20571;-85
2021/07/28 10:54:46;;;;;;;3.15;0.60;;;22.00;99.90;;;;;;4911599;29;20055;-84
2021/07/28 10:57:34;;;;;;;3.42;0.70;;;22.10;99.90;;;;;;4928063;29;20087;-84
2021/07/28 11:00:11;;;;;;;1.45;0.50;;;22.00;99.90;;;;;;4912265;29;20044;-84
2021/07/28 11:02:54;;;;;;;2.90;0.50;;;23.00;99.90;;;;;;4912046;29;20038;-85
2021/07/28 11:05:25;;;;;;;1.98;0.50;;;23.10;99.90;;;;;;4911931;29;20040;-85
2021/07/28 11:08:06;;;;;;;3.78;0.52;;;23.70;99.90;;;;;;4912065;29;20035;-86
2021/07/28 11:10:53;;;;;;;3.75;0.70;;;23.40;99.90;;;;;;4927545;29;20251;-84
2021/07/28 11:13:21;;;;;;;3.42;0.60;;;23.40;99.90;;;;;;4911952;29;20054;-85
2021/07/28 11:16:10;;;;;;;2.15;0.57;;;23.70;99.90;;;;;;4911330;29;20091;-85
2021/07/28 11:18:41;;;;;;;2.95;0.50;;;23.80;99.90;;;;;;4904338;29;20112;-84
2021/07/28 11:21:21;;;;;;;1.73;0.55;;;24.10;99.90;;;;;;4911663;29;20032;-84
2021/07/28 11:23:55;;;;;;;3.90;0.50;;;24.30;99.90;;;;;;4911813;29;20052;-85
2021/07/28 11:26:26;;;;;;;2.60;0.40;;;24.40;99.90;;;;;;4911362;29;20032;-86
2021/07/28 11:28:58;;;;;;;3.50;0.40;;;24.60;99.90;;;;;;4911614;29;20028;-85
2021/07/28 11:31:29;;;;;;;1.13;0.40;;;24.40;99.90;;;;;;4911827;29;20039;-84
2021/07/28 11:34:06;;;;;;;1.95;0.40;;;24.60;99.90;;;;;;4911621;29;20053;-85
2021/07/28 11:36:35;;;;;;;1.08;0.30;;;23.90;99.90;;;;;;4908295;29;20293;-85
2021/07/28 11:39:13;;;;;;;1.02;0.30;;;24.80;99.90;;;;;;4892940;29;20402;-85
2021/07/28 11:41:39;;;;;;;1.73;0.30;;;24.70;99.90;;;;;;4892777;29;20082;-85
2021/07/28 11:44:05;;;;;;;2.45;0.35;;;24.10;99.90;;;;;;4892707;29;20032;-87
2021/07/28 11:46:31;;;;;;;3.00;0.40;;;24.60;99.90;;;;;;4892514;29;20060;-84
2021/07/28 11:48:57;;;;;;;2.00;0.30;;;24.20;99.90;;;;;;4892671;29;20084;-85
2021/07/28 11:51:35;;;;;;;1.95;0.30;;;24.00;99.90;;;;;;4892730;29;20033;-87
2021/07/28 11:54:14;;;;;;;1.02;0.30;;;23.80;99.90;;;;;;4893758;29;20044;-84
2021/07/28 11:56:52;;;;;;;1.88;0.40;;;24.30;99.90;;;;;;4896275;29;20043;-84
2021/07/28 11:59:22;;;;;;;2.95;0.30;;;24.00;99.90;;;;;;4911974;29;20493;-85
2021/07/28 12:01:49;;;;;;;2.63;0.30;;;24.40;99.90;;;;;;4896494;29;20037;-87
2021/07/28 12:04:20;;;;;;;3.20;0.40;;;24.60;99.90;;;;;;4912036;29;20040;-85
2021/07/28 12:06:46;;;;;;;1.17;0.40;;;24.00;99.90;;;;;;4896297;29;20037;-84
2021/07/28 12:09:19;;;;;;;2.55;0.30;;;23.80;99.90;;;;;;4896522;29;20120;-83
2021/07/28 12:11:53;;;;;;;1.55;0.40;;;24.00;99.90;;;;;;4927283;29;20045;-88
2021/07/28 12:14:39;;;;;;;0.95;0.30;;;24.30;99.90;;;;;;4912010;29;20175;-84
2021/07/28 12:17:17;;;;;;;1.27;0.40;;;23.40;99.90;;;;;;4911367;29;20043;-84
2021/07/28 12:19:59;;;;;;;1.35;0.40;;;23.00;99.90;;;;;;4927585;29;20497;-84
2021/07/28 12:22:29;;;;;;;1.05;0.40;;;22.70;99.90;;;;;;4896401;29;20434;-84
2021/07/28 12:25:18;;;;;;;2.10;0.40;;;22.70;99.90;;;;;;4895812;29;20033;-84
2021/07/28 12:27:56;;;;;;;1.20;0.40;;;23.30;99.90;;;;;;4895904;29;20040;-84
2021/07/28 12:30:36;;;;;;;1.20;0.40;;;23.60;99.90;;;;;;4911864;29;20066;-83
2021/07/28 12:33:12;;;;;;;2.15;0.40;;;24.10;99.90;;;;;;4896025;29;20041;-85
2021/07/28 12:35:54;;;;;;;3.53;0.40;;;23.10;99.90;;;;;;4895907;29;20041;-86
2021/07/28 12:38:29;;;;;;;2.85;0.35;;;22.50;99.90;;;;;;4914706;29;20036;-85
2021/07/28 12:41:01;;;;;;;2.55;0.30;;;22.70;99.90;;;;;;4914379;29;20036;-86
2021/07/28 12:43:29;;;;;;;2.70;0.45;;;23.10;99.90;;;;;;4914391;29;20355;-86
2021/07/28 12:45:56;;;;;;;1.70;0.30;;;22.90;99.90;;;;;;4914105;29;20040;-84
2021/07/28 12:48:23;;;;;;;2.45;0.40;;;23.20;99.90;;;;;;4914133;29;20036;-83
2021/07/28 12:50:49;;;;;;;3.92;0.40;;;23.20;99.90;;;;;;4914334;29;20036;-87
2021/07/28 12:53:15;;;;;;;3.03;0.50;;;23.00;99.90;;;;;;4914240;29;20048;-83
2021/07/28 12:55:41;;;;;;;1.00;0.40;;;22.50;99.90;;;;;;4914197;29;20032;-84
2021/07/28 12:58:07;;;;;;;3.08;0.30;;;22.50;99.90;;;;;;4914126;29;20108;-85
2021/07/28 13:00:37;;;;;;;1.83;0.30;;;22.50;99.90;;;;;;4914084;29;20032;-84
2021/07/28 13:03:07;;;;;;;2.03;0.40;;;22.80;99.90;;;;;;4931201;29;20035;-82